sensor_id;sensor_type;location;lat;lon;timestamp;pressure;altitude;pressure_sealevel;temperature;humidity
8334;BME280;4204;43.004;23.052;2022-10-16T00:01:42;94408.22;;;5.58;100.00
8334;BME280;4204;43.004;23.052;2022-10-16T00:04:11;94402.38;;;5.61;100.00
8334;BME280;4204;43.004;23.052;2022-10-16T00:06:39;94406.91;;;5.60;100.00
8334;BME280;4204;43.004;23.052;2022-10-16T00:09:07;94406.63;;;5.62;100.00
8334;BME280;4204;43.004;23.052;2022-10-16T00:11:37;94410.56;;;5.69;100.00
8334;BME280;4204;43.004;23.052;2022-10-16T00:14:08;94421.66;;;5.61;100.00
8334;BME280;4204;43.004;23.052;2022-10-16T00:16:37;94414.75;;;5.86;100.00
8334;BME280;4204;43.004;23.052;2022-10-16T00:19:05;94417.69;;;5.84;100.00
8334;BME280;4204;43.004;23.052;2022-10-16T00:21:34;94419.00;;;5.92;100.00
8334;BME280;4204;43.004;23.052;2022-10-16T00:24:21;94420.03;;;5.91;100.00
8334;BME280;4204;43.004;23.052;2022-10-16T00:26:49;94415.28;;;5.83;100.00
8334;BME280;4204;43.004;23.052;2022-10-16T00:29:17;94419.53;;;5.79;100.00
8334;BME280;4204;43.004;23.052;2022-10-16T00:31:45;94428.22;;;5.84;100.00
8334;BME280;4204;43.004;23.052;2022-10-16T00:34:12;94429.81;;;5.70;100.00
8334;BME280;4204;43.004;23.052;2022-10-16T00:36:41;94434.06;;;5.66;100.00
8334;BME280;4204;43.004;23.052;2022-10-16T00:39:09;94429.03;;;5.59;100.00
8334;BME280;4204;43.004;23.052;2022-10-16T00:41:37;94425.91;;;5.47;100.00
8334;BME280;4204;43.004;23.052;2022-10-16T00:47:07;94427.50;;;5.33;100.00
8334;BME280;4204;43.004;23.052;2022-10-16T00:49:35;94430.16;;;5.33;100.00
8334;BME280;4204;43.004;23.052;2022-10-16T00:52:05;94428.03;;;5.35;100.00
8334;BME280;4204;43.004;23.052;2022-10-16T00:54:33;94433.03;;;5.37;100.00
8334;BME280;4204;43.004;23.052;2022-10-16T00:57:04;94434.34;;;5.34;100.00
8334;BME280;4204;43.004;23.052;2022-10-16T00:59:34;94429.88;;;5.35;100.00
8334;BME280;4204;43.004;23.052;2022-10-16T01:02:03;94433.84;;;5.27;100.00
8334;BME280;4204;43.004;23.052;2022-10-16T01:04:35;94431.97;;;5.28;100.00
8334;BME280;4204;43.004;23.052;2022-10-16T01:07:12;94420.38;;;5.44;100.00
8334;BME280;4204;43.004;23.052;2022-10-16T01:09:50;94413.47;;;5.73;100.00
8334;BME280;4204;43.004;23.052;2022-10-16T01:12:26;94417.41;;;5.75;100.00
8334;BME280;4204;43.004;23.052;2022-10-16T01:15:01;94421.09;;;5.69;100.00
8334;BME280;4204;43.004;23.052;2022-10-16T01:17:35;94414.22;;;5.73;100.00
8334;BME280;4204;43.004;23.052;2022-10-16T01:20:11;94421.13;;;5.59;100.00
8334;BME280;4204;43.004;23.052;2022-10-16T01:22:53;94420.34;;;5.49;100.00
8334;BME280;4204;43.004;23.052;2022-10-16T01:25:27;94418.78;;;5.48;100.00
8334;BME280;4204;43.004;23.052;2022-10-16T01:27:59;94428.00;;;5.40;100.00
8334;BME280;4204;43.004;23.052;2022-10-16T01:30:30;94421.16;;;5.34;100.00
8334;BME280;4204;43.004;23.052;2022-10-16T01:33:02;94431.72;;;5.39;100.00
8334;BME280;4204;43.004;23.052;2022-10-16T01:35:35;94430.66;;;5.40;100.00
8334;BME280;4204;43.004;23.052;2022-10-16T01:38:08;94431.44;;;5.26;100.00
8334;BME280;4204;43.004;23.052;2022-10-16T01:40:39;94443.84;;;5.20;100.00
8334;BME280;4204;43.004;23.052;2022-10-16T01:43:13;94433.03;;;5.12;100.00
8334;BME280;4204;43.004;23.052;2022-10-16T01:45:44;94438.31;;;5.12;100.00
8334;BME280;4204;43.004;23.052;2022-10-16T01:48:14;94436.75;;;5.21;100.00
8334;BME280;4204;43.004;23.052;2022-10-16T01:50:47;94439.91;;;5.33;100.00
8334;BME280;4204;43.004;23.052;2022-10-16T01:53:16;94436.75;;;5.21;100.00
8334;BME280;4204;43.004;23.052;2022-10-16T01:55:46;94437.53;;;5.21;100.00
8334;BME280;4204;43.004;23.052;2022-10-16T01:58:16;94444.13;;;5.09;100.00
8334;BME280;4204;43.004;23.052;2022-10-16T02:00:45;94438.03;;;5.03;100.00
8334;BME280;4204;43.004;23.052;2022-10-16T02:03:16;94437.53;;;4.96;100.00
8334;BME280;4204;43.004;23.052;2022-10-16T02:05:47;94436.47;;;5.02;100.00
8334;BME280;4204;43.004;23.052;2022-10-16T02:08:16;94444.91;;;5.24;100.00
8334;BME280;4204;43.004;23.052;2022-10-16T02:10:44;94446.75;;;5.19;100.00
8334;BME280;4204;43.004;23.052;2022-10-16T02:13:17;94443.34;;;5.23;100.00
8334;BME280;4204;43.004;23.052;2022-10-16T02:15:48;94445.72;;;5.15;100.00
8334;BME280;4204;43.004;23.052;2022-10-16T02:18:16;94445.97;;;4.98;100.00
8334;BME280;4204;43.004;23.052;2022-10-16T02:20:49;94452.03;;;4.99;100.00
8334;BME280;4204;43.004;23.052;2022-10-16T02:23:23;94446.19;;;4.86;100.00
8334;BME280;4204;43.004;23.052;2022-10-16T02:25:54;94454.13;;;4.91;100.00
8334;BME280;4204;43.004;23.052;2022-10-16T02:28:30;94455.69;;;4.87;100.00
8334;BME280;4204;43.004;23.052;2022-10-16T02:31:03;94445.41;;;4.81;100.00
8334;BME280;4204;43.004;23.052;2022-10-16T02:33:32;94451.69;;;4.70;100.00
8334;BME280;4204;43.004;23.052;2022-10-16T02:36:01;94449.34;;;4.68;100.00
8334;BME280;4204;43.004;23.052;2022-10-16T02:38:30;94452.22;;;4.67;100.00
8334;BME280;4204;43.004;23.052;2022-10-16T02:40:58;94463.81;;;4.61;100.00
8334;BME280;4204;43.004;23.052;2022-10-16T02:43:27;94464.63;;;4.61;100.00
8334;BME280;4204;43.004;23.052;2022-10-16T02:45:55;94460.66;;;4.59;100.00
8334;BME280;4204;43.004;23.052;2022-10-16T02:48:22;94463.53;;;4.57;100.00
8334;BME280;4204;43.004;23.052;2022-10-16T02:50:50;94467.75;;;4.58;100.00
8334;BME280;4204;43.004;23.052;2022-10-16T02:53:18;94414.19;;;4.28;100.00
8334;BME280;4204;43.004;23.052;2022-10-16T02:55:46;94473.56;;;4.65;100.00
8334;BME280;4204;43.004;23.052;2022-10-16T02:58:13;94480.94;;;4.63;100.00
8334;BME280;4204;43.004;23.052;2022-10-16T03:00:43;94481.78;;;4.89;100.00
8334;BME280;4204;43.004;23.052;2022-10-16T03:03:10;94482.84;;;5.03;100.00
8334;BME280;4204;43.004;23.052;2022-10-16T03:05:38;94484.66;;;4.77;100.00
8334;BME280;4204;43.004;23.052;2022-10-16T03:08:06;94477.53;;;4.73;100.00
8334;BME280;4204;43.004;23.052;2022-10-16T03:10:33;94481.75;;;4.79;100.00
8334;BME280;4204;43.004;23.052;2022-10-16T03:13:01;94474.63;;;4.64;100.00
8334;BME280;4204;43.004;23.052;2022-10-16T03:15:29;94478.84;;;4.65;100.00
8334;BME280;4204;43.004;23.052;2022-10-16T03:17:58;94474.88;;;4.63;100.00
8334;BME280;4204;43.004;23.052;2022-10-16T03:20:26;94480.66;;;4.60;100.00
8334;BME280;4204;43.004;23.052;2022-10-16T03:22:54;94481.22;;;4.67;100.00
8334;BME280;4204;43.004;23.052;2022-10-16T03:25:22;94482.00;;;4.67;100.00
8334;BME280;4204;43.004;23.052;2022-10-16T03:27:50;94471.19;;;4.59;100.00
8334;BME280;4204;43.004;23.052;2022-10-16T03:30:17;94474.81;;;4.48;100.00
8334;BME280;4204;43.004;23.052;2022-10-16T03:32:45;94485.69;;;4.66;100.00
8334;BME280;4204;43.004;23.052;2022-10-16T03:35:14;94480.69;;;4.65;100.00
8334;BME280;4204;43.004;23.052;2022-10-16T03:37:42;94480.38;;;4.56;100.00
8334;BME280;4204;43.004;23.052;2022-10-16T03:40:10;94479.34;;;4.62;100.00
8334;BME280;4204;43.004;23.052;2022-10-16T03:42:38;94483.31;;;4.65;100.00
8334;BME280;4204;43.004;23.052;2022-10-16T03:45:06;94486.72;;;4.60;100.00
8334;BME280;4204;43.004;23.052;2022-10-16T03:47:34;94482.53;;;4.64;100.00
8334;BME280;4204;43.004;23.052;2022-10-16T03:50:02;94440.28;;;4.39;100.00
8334;BME280;4204;43.004;23.052;2022-10-16T03:52:31;94485.41;;;4.58;100.00
8334;BME280;4204;43.004;23.052;2022-10-16T03:54:59;94483.78;;;4.52;100.00
8334;BME280;4204;43.004;23.052;2022-10-16T03:57:27;94498.06;;;4.66;100.00
8334;BME280;4204;43.004;23.052;2022-10-16T03:59:54;94501.00;;;4.84;100.00
8334;BME280;4204;43.004;23.052;2022-10-16T04:02:22;94491.56;;;4.99;100.00
8334;BME280;4204;43.004;23.052;2022-10-16T04:04:50;94491.00;;;4.97;100.00
8334;BME280;4204;43.004;23.052;2022-10-16T04:07:17;94485.19;;;4.84;100.00
8334;BME280;4204;43.004;23.052;2022-10-16T04:09:46;94490.41;;;4.64;100.00
8334;BME280;4204;43.004;23.052;2022-10-16T04:12:14;94493.84;;;4.65;100.00
8334;BME280;4204;43.004;23.052;2022-10-16T04:14:42;94490.91;;;4.51;100.00
8334;BME280;4204;43.004;23.052;2022-10-16T04:17:09;94482.72;;;4.48;100.00
8334;BME280;4204;43.004;23.052;2022-10-16T04:19:37;94488.53;;;4.50;100.00
8334;BME280;4204;43.004;23.052;2022-10-16T04:22:05;94476.66;;;4.47;100.00
8334;BME280;4204;43.004;23.052;2022-10-16T04:24:32;94481.94;;;4.42;100.00
8334;BME280;4204;43.004;23.052;2022-10-16T04:27:01;94484.81;;;4.41;100.00
8334;BME280;4204;43.004;23.052;2022-10-16T04:29:29;94487.16;;;4.37;100.00
8334;BME280;4204;43.004;23.052;2022-10-16T04:31:57;94478.72;;;4.35;100.00
8334;BME280;4204;43.004;23.052;2022-10-16T04:34:24;94481.91;;;4.32;100.00
8334;BME280;4204;43.004;23.052;2022-10-16T04:36:52;94487.94;;;4.28;100.00
8334;BME280;4204;43.004;23.052;2022-10-16T04:39:20;94495.06;;;4.32;100.00
8334;BME280;4204;43.004;23.052;2022-10-16T04:41:47;94493.50;;;4.41;100.00
8334;BME280;4204;43.004;23.052;2022-10-16T04:44:19;94493.50;;;4.41;100.00
8334;BME280;4204;43.004;23.052;2022-10-16T04:46:50;94497.44;;;4.34;100.00
8334;BME280;4204;43.004;23.052;2022-10-16T04:49:17;94493.69;;;4.20;100.00
8334;BME280;4204;43.004;23.052;2022-10-16T04:51:45;94496.09;;;4.26;100.00
8334;BME280;4204;43.004;23.052;2022-10-16T04:54:13;94478.97;;;4.29;100.00
8334;BME280;4204;43.004;23.052;2022-10-16T04:56:40;94490.56;;;4.33;100.00
8334;BME280;4204;43.004;23.052;2022-10-16T04:59:13;94479.50;;;4.26;100.00
8334;BME280;4204;43.004;23.052;2022-10-16T05:01:43;94496.91;;;4.32;100.00
8334;BME280;4204;43.004;23.052;2022-10-16T05:04:10;94496.13;;;4.36;100.00
8334;BME280;4204;43.004;23.052;2022-10-16T05:06:38;94496.13;;;4.36;100.00
8334;BME280;4204;43.004;23.052;2022-10-16T05:09:06;94504.78;;;4.32;100.00
8334;BME280;4204;43.004;23.052;2022-10-16T05:11:34;94509.00;;;4.28;100.00
8334;BME280;4204;43.004;23.052;2022-10-16T05:14:02;94502.63;;;4.19;100.00
8334;BME280;4204;43.004;23.052;2022-10-16T05:16:30;94511.59;;;4.23;100.00
8334;BME280;4204;43.004;23.052;2022-10-16T05:18:59;94510.59;;;4.39;100.00
8334;BME280;4204;43.004;23.052;2022-10-16T05:21:27;94519.84;;;4.41;100.00
8334;BME280;4204;43.004;23.052;2022-10-16T05:23:55;94522.16;;;4.33;100.00
8334;BME280;4204;43.004;23.052;2022-10-16T05:26:22;94525.59;;;4.33;100.00
8334;BME280;4204;43.004;23.052;2022-10-16T05:28:50;94530.84;;;4.28;100.00
8334;BME280;4204;43.004;23.052;2022-10-16T05:31:18;94536.22;;;4.48;100.00
8334;BME280;4204;43.004;23.052;2022-10-16T05:33:46;94532.25;;;4.46;100.00
8334;BME280;4204;43.004;23.052;2022-10-16T05:36:16;94536.72;;;4.45;100.00
8334;BME280;4204;43.004;23.052;2022-10-16T05:38:44;94532.00;;;4.57;100.00
8334;BME280;4204;43.004;23.052;2022-10-16T05:41:12;94546.84;;;4.73;100.00
8334;BME280;4204;43.004;23.052;2022-10-16T05:43:39;94546.03;;;4.68;100.00
8334;BME280;4204;43.004;23.052;2022-10-16T05:46:07;94549.28;;;4.90;100.00
8334;BME280;4204;43.004;23.052;2022-10-16T05:48:34;94544.22;;;4.73;100.00
8334;BME280;4204;43.004;23.052;2022-10-16T05:51:04;94548.41;;;4.74;100.00
8334;BME280;4204;43.004;23.052;2022-10-16T05:53:36;94551.59;;;4.76;100.00
8334;BME280;4204;43.004;23.052;2022-10-16T05:56:04;94553.22;;;4.87;100.00
8334;BME280;4204;43.004;23.052;2022-10-16T05:58:33;94555.88;;;4.98;100.00
8334;BME280;4204;43.004;23.052;2022-10-16T06:01:05;94553.28;;;5.13;100.00
8334;BME280;4204;43.004;23.052;2022-10-16T06:03:34;94557.53;;;5.29;100.00
8334;BME280;4204;43.004;23.052;2022-10-16T06:06:07;94568.09;;;5.44;100.00
8334;BME280;4204;43.004;23.052;2022-10-16T06:08:37;94567.03;;;5.65;100.00
8334;BME280;4204;43.004;23.052;2022-10-16T06:11:06;94571.84;;;5.88;100.00
8334;BME280;4204;43.004;23.052;2022-10-16T06:13:34;94571.03;;;6.13;100.00
8334;BME280;4204;43.004;23.052;2022-10-16T06:16:03;94570.19;;;6.42;100.00
8334;BME280;4204;43.004;23.052;2022-10-16T06:18:31;94565.38;;;6.60;100.00
8334;BME280;4204;43.004;23.052;2022-10-16T06:20:59;94565.81;;;6.82;100.00
8334;BME280;4204;43.004;23.052;2022-10-16T06:23:28;94565.22;;;7.00;100.00
8334;BME280;4204;43.004;23.052;2022-10-16T06:26:06;94570.97;;;7.12;100.00
8334;BME280;4204;43.004;23.052;2022-10-16T06:28:34;94574.09;;;7.24;100.00
8334;BME280;4204;43.004;23.052;2022-10-16T06:31:03;94570.56;;;7.39;100.00
8334;BME280;4204;43.004;23.052;2022-10-16T06:33:31;94576.03;;;7.52;100.00
8334;BME280;4204;43.004;23.052;2022-10-16T06:36:03;94580.56;;;7.85;100.00
8334;BME280;4204;43.004;23.052;2022-10-16T06:38:31;94579.59;;;8.05;100.00
8334;BME280;4204;43.004;23.052;2022-10-16T06:40:59;94582.13;;;8.20;100.00
8334;BME280;4204;43.004;23.052;2022-10-16T06:43:30;94580.09;;;8.41;100.00
8334;BME280;4204;43.004;23.052;2022-10-16T06:45:59;94589.25;;;8.53;100.00
8334;BME280;4204;43.004;23.052;2022-10-16T06:48:28;94586.66;;;8.72;100.00
8334;BME280;4204;43.004;23.052;2022-10-16T06:50:57;94590.34;;;9.00;100.00
8334;BME280;4204;43.004;23.052;2022-10-16T06:53:26;94590.03;;;9.25;100.00
8334;BME280;4204;43.004;23.052;2022-10-16T06:55:55;94591.31;;;9.46;100.00
8334;BME280;4204;43.004;23.052;2022-10-16T06:58:23;94591.63;;;9.63;100.00
8334;BME280;4204;43.004;23.052;2022-10-16T07:00:56;94606.47;;;10.01;100.00
8334;BME280;4204;43.004;23.052;2022-10-16T07:03:24;94610.53;;;10.31;100.00
8334;BME280;4204;43.004;23.052;2022-10-16T07:05:51;94614.34;;;10.57;100.00
8334;BME280;4204;43.004;23.052;2022-10-16T07:08:19;94616.84;;;10.81;100.00
8334;BME280;4204;43.004;23.052;2022-10-16T07:10:47;94626.22;;;11.05;100.00
8334;BME280;4204;43.004;23.052;2022-10-16T07:13:14;94625.84;;;11.25;100.00
8334;BME280;4204;43.004;23.052;2022-10-16T07:15:42;94623.66;;;11.41;100.00
8334;BME280;4204;43.004;23.052;2022-10-16T07:18:12;94620.38;;;11.58;100.00
8334;BME280;4204;43.004;23.052;2022-10-16T07:20:39;94621.34;;;11.75;100.00
8334;BME280;4204;43.004;23.052;2022-10-16T07:23:07;94625.00;;;11.79;100.00
8334;BME280;4204;43.004;23.052;2022-10-16T07:25:36;94610.41;;;11.77;100.00
8334;BME280;4204;43.004;23.052;2022-10-16T07:28:04;94625.25;;;11.91;100.00
8334;BME280;4204;43.004;23.052;2022-10-16T07:30:34;94626.31;;;12.04;100.00
8334;BME280;4204;43.004;23.052;2022-10-16T07:33:03;94627.28;;;12.08;100.00
8334;BME280;4204;43.004;23.052;2022-10-16T07:35:32;94637.09;;;12.21;100.00
8334;BME280;4204;43.004;23.052;2022-10-16T07:37:59;94627.47;;;12.34;100.00
8334;BME280;4204;43.004;23.052;2022-10-16T07:40:27;94635.59;;;12.51;100.00
8334;BME280;4204;43.004;23.052;2022-10-16T07:42:55;94640.06;;;12.64;100.00
8334;BME280;4204;43.004;23.052;2022-10-16T07:45:22;94635.56;;;12.73;100.00
8334;BME280;4204;43.004;23.052;2022-10-16T07:47:50;94634.81;;;12.81;100.00
8334;BME280;4204;43.004;23.052;2022-10-16T07:50:18;94636.25;;;12.87;100.00
8334;BME280;4204;43.004;23.052;2022-10-16T07:52:47;94630.47;;;12.93;100.00
8334;BME280;4204;43.004;23.052;2022-10-16T07:55:14;94632.13;;;13.03;100.00
8334;BME280;4204;43.004;23.052;2022-10-16T07:57:42;94638.97;;;13.18;100.00
8334;BME280;4204;43.004;23.052;2022-10-16T08:00:11;94634.44;;;13.27;100.00
8334;BME280;4204;43.004;23.052;2022-10-16T08:02:40;94633.66;;;13.35;100.00
8334;BME280;4204;43.004;23.052;2022-10-16T08:05:08;94637.16;;;13.44;100.00
8334;BME280;4204;43.004;23.052;2022-10-16T08:07:37;94645.53;;;13.51;100.00
8334;BME280;4204;43.004;23.052;2022-10-16T08:10:09;94637.97;;;13.61;100.00
8334;BME280;4204;43.004;23.052;2022-10-16T08:12:38;94640.69;;;13.70;100.00
8334;BME280;4204;43.004;23.052;2022-10-16T08:15:07;94636.75;;;13.76;100.00
8334;BME280;4204;43.004;23.052;2022-10-16T08:17:35;94634.91;;;13.85;100.00
8334;BME280;4204;43.004;23.052;2022-10-16T08:20:03;94628.47;;;13.86;100.00
8334;BME280;4204;43.004;23.052;2022-10-16T08:22:31;94625.00;;;13.94;100.00
8334;BME280;4204;43.004;23.052;2022-10-16T08:24:59;94640.44;;;14.14;100.00
8334;BME280;4204;43.004;23.052;2022-10-16T08:27:32;94634.59;;;14.21;100.00
8334;BME280;4204;43.004;23.052;2022-10-16T08:29:59;94642.97;;;14.36;100.00
8334;BME280;4204;43.004;23.052;2022-10-16T08:32:27;94635.13;;;14.40;100.00
8334;BME280;4204;43.004;23.052;2022-10-16T08:34:55;94634.13;;;14.44;100.00
8334;BME280;4204;43.004;23.052;2022-10-16T08:37:22;94633.34;;;14.61;100.00
8334;BME280;4204;43.004;23.052;2022-10-16T08:39:50;94643.44;;;14.55;100.00
8334;BME280;4204;43.004;23.052;2022-10-16T08:42:34;94620.94;;;14.39;100.00
8334;BME280;4204;43.004;23.052;2022-10-16T08:45:33;94638.69;;;14.70;100.00
8334;BME280;4204;43.004;23.052;2022-10-16T08:48:11;94636.63;;;14.75;100.00
8334;BME280;4204;43.004;23.052;2022-10-16T08:50:42;94630.03;;;14.73;100.00
8334;BME280;4204;43.004;23.052;2022-10-16T08:53:15;94638.50;;;14.83;100.00
8334;BME280;4204;43.004;23.052;2022-10-16T08:55:46;94653.59;;;14.88;100.00
8334;BME280;4204;43.004;23.052;2022-10-16T08:58:20;94634.56;;;14.81;100.00
8334;BME280;4204;43.004;23.052;2022-10-16T09:00:51;94661.63;;;14.96;100.00
8334;BME280;4204;43.004;23.052;2022-10-16T09:03:37;94646.78;;;15.07;100.00
8334;BME280;4204;43.004;23.052;2022-10-16T09:06:26;94653.09;;;15.03;100.00
8334;BME280;4204;43.004;23.052;2022-10-16T09:09:14;94649.78;;;15.06;100.00
8334;BME280;4204;43.004;23.052;2022-10-16T09:11:53;94652.13;;;15.16;100.00
8334;BME280;4204;43.004;23.052;2022-10-16T09:14:45;94651.94;;;15.21;100.00
8334;BME280;4204;43.004;23.052;2022-10-16T09:17:30;94654.88;;;15.36;100.00
8334;BME280;4204;43.004;23.052;2022-10-16T09:20:09;94652.47;;;15.52;100.00
8334;BME280;4204;43.004;23.052;2022-10-16T09:22:40;94654.66;;;15.59;100.00
8334;BME280;4204;43.004;23.052;2022-10-16T09:25:12;94659.03;;;15.63;100.00
8334;BME280;4204;43.004;23.052;2022-10-16T09:27:40;94647.06;;;15.61;100.00
8334;BME280;4204;43.004;23.052;2022-10-16T09:30:16;94637.03;;;15.78;100.00
8334;BME280;4204;43.004;23.052;2022-10-16T09:32:44;94640.59;;;15.91;100.00
8334;BME280;4204;43.004;23.052;2022-10-16T09:35:16;94645.75;;;15.96;100.00
8334;BME280;4204;43.004;23.052;2022-10-16T09:37:47;94646.72;;;15.91;100.00
8334;BME280;4204;43.004;23.052;2022-10-16T09:40:24;94647.47;;;16.00;100.00
8334;BME280;4204;43.004;23.052;2022-10-16T09:42:57;94643.13;;;16.08;100.00
8334;BME280;4204;43.004;23.052;2022-10-16T09:45:26;94644.34;;;16.19;100.00
8334;BME280;4204;43.004;23.052;2022-10-16T09:47:54;94644.28;;;16.28;100.00
8334;BME280;4204;43.004;23.052;2022-10-16T09:50:26;94635.53;;;16.31;100.00
8334;BME280;4204;43.004;23.052;2022-10-16T09:53:05;94628.16;;;16.28;100.00
8334;BME280;4204;43.004;23.052;2022-10-16T09:55:33;94632.84;;;16.31;100.00
8334;BME280;4204;43.004;23.052;2022-10-16T09:58:01;94635.34;;;16.36;100.00
8334;BME280;4204;43.004;23.052;2022-10-16T10:00:30;94633.13;;;16.38;100.00
8334;BME280;4204;43.004;23.052;2022-10-16T10:02:59;94625.06;;;16.38;100.00
8334;BME280;4204;43.004;23.052;2022-10-16T10:05:28;94626.91;;;16.46;100.00
8334;BME280;4204;43.004;23.052;2022-10-16T10:07:58;94625.72;;;16.55;100.00
8334;BME280;4204;43.004;23.052;2022-10-16T10:10:27;94633.03;;;16.55;100.00
8334;BME280;4204;43.004;23.052;2022-10-16T10:12:56;94626.09;;;16.66;100.00
8334;BME280;4204;43.004;23.052;2022-10-16T10:15:24;94616.03;;;16.63;100.00
8334;BME280;4204;43.004;23.052;2022-10-16T10:17:56;94605.94;;;16.60;100.00
8334;BME280;4204;43.004;23.052;2022-10-16T10:20:26;94613.72;;;16.73;100.00
8334;BME280;4204;43.004;23.052;2022-10-16T10:22:55;94612.59;;;16.74;100.00
8334;BME280;4204;43.004;23.052;2022-10-16T10:25:42;94613.38;;;16.75;100.00
8334;BME280;4204;43.004;23.052;2022-10-16T10:28:28;94620.56;;;16.83;100.00
8334;BME280;4204;43.004;23.052;2022-10-16T10:31:06;94616.56;;;16.89;100.00
8334;BME280;4204;43.004;23.052;2022-10-16T10:33:44;94611.44;;;16.96;100.00
8334;BME280;4204;43.004;23.052;2022-10-16T10:36:25;94604.28;;;17.00;100.00
8334;BME280;4204;43.004;23.052;2022-10-16T10:38:58;94600.00;;;16.99;100.00
8334;BME280;4204;43.004;23.052;2022-10-16T10:41:52;94593.97;;;17.14;100.00
8334;BME280;4204;43.004;23.052;2022-10-16T10:44:32;94593.34;;;17.29;100.00
8334;BME280;4204;43.004;23.052;2022-10-16T10:47:12;94589.75;;;17.37;100.00
8334;BME280;4204;43.004;23.052;2022-10-16T10:49:55;94587.50;;;17.39;100.00
8334;BME280;4204;43.004;23.052;2022-10-16T10:52:37;94584.03;;;17.39;100.00
8334;BME280;4204;43.004;23.052;2022-10-16T10:55:16;94577.09;;;17.38;100.00
8334;BME280;4204;43.004;23.052;2022-10-16T10:58:03;94582.91;;;17.40;100.00
8334;BME280;4204;43.004;23.052;2022-10-16T11:00:42;94578.66;;;17.39;100.00
8334;BME280;4204;43.004;23.052;2022-10-16T11:03:22;94582.56;;;17.29;100.00
8334;BME280;4204;43.004;23.052;2022-10-16T11:06:00;94579.53;;;17.31;100.00
8334;BME280;4204;43.004;23.052;2022-10-16T11:08:35;94582.13;;;17.39;100.00
8334;BME280;4204;43.004;23.052;2022-10-16T11:11:09;94572.25;;;17.43;100.00
8334;BME280;4204;43.004;23.052;2022-10-16T11:13:44;94574.25;;;17.46;100.00
8334;BME280;4204;43.004;23.052;2022-10-16T11:16:19;94579.56;;;17.55;100.00
8334;BME280;4204;43.004;23.052;2022-10-16T11:18:51;94581.59;;;17.58;100.00
8334;BME280;4204;43.004;23.052;2022-10-16T11:21:24;94579.00;;;17.49;100.00
8334;BME280;4204;43.004;23.052;2022-10-16T11:23:55;94580.25;;;17.52;100.00
8334;BME280;4204;43.004;23.052;2022-10-16T11:26:26;94585.97;;;17.50;100.00
8334;BME280;4204;43.004;23.052;2022-10-16T11:28:56;94579.97;;;17.45;100.00
8334;BME280;4204;43.004;23.052;2022-10-16T11:31:30;94578.78;;;17.54;100.00
8334;BME280;4204;43.004;23.052;2022-10-16T11:34:05;94589.41;;;17.51;100.00
8334;BME280;4204;43.004;23.052;2022-10-16T11:36:39;94570.59;;;17.51;100.00
8334;BME280;4204;43.004;23.052;2022-10-16T11:39:19;94583.28;;;17.50;100.00
8334;BME280;4204;43.004;23.052;2022-10-16T11:41:49;94581.56;;;17.46;100.00
8334;BME280;4204;43.004;23.052;2022-10-16T11:44:27;94574.41;;;17.38;100.00
8334;BME280;4204;43.004;23.052;2022-10-16T11:47:08;94573.63;;;17.49;100.00
8334;BME280;4204;43.004;23.052;2022-10-16T11:49:40;94574.59;;;17.45;100.00
8334;BME280;4204;43.004;23.052;2022-10-16T11:52:15;94572.63;;;17.54;100.00
8334;BME280;4204;43.004;23.052;2022-10-16T11:54:48;94573.88;;;17.56;100.00
8334;BME280;4204;43.004;23.052;2022-10-16T11:57:20;94578.34;;;17.64;100.00
8334;BME280;4204;43.004;23.052;2022-10-16T11:59:55;94577.75;;;17.59;100.00
8334;BME280;4204;43.004;23.052;2022-10-16T12:02:49;94577.31;;;17.69;100.00
8334;BME280;4204;43.004;23.052;2022-10-16T12:05:24;94577.66;;;17.67;100.00
8334;BME280;4204;43.004;23.052;2022-10-16T12:08:05;94589.53;;;17.66;100.00
8334;BME280;4204;43.004;23.052;2022-10-16T12:10:35;94583.59;;;17.61;100.00
8334;BME280;4204;43.004;23.052;2022-10-16T12:13:04;94578.66;;;17.63;100.00
8334;BME280;4204;43.004;23.052;2022-10-16T12:15:33;94592.00;;;17.59;100.00
8334;BME280;4204;43.004;23.052;2022-10-16T12:18:01;94581.13;;;17.68;100.00
8334;BME280;4204;43.004;23.052;2022-10-16T12:20:30;94573.63;;;17.61;100.00
8334;BME280;4204;43.004;23.052;2022-10-16T12:23:02;94577.75;;;17.59;100.00
8334;BME280;4204;43.004;23.052;2022-10-16T12:25:32;94575.84;;;17.59;100.00
8334;BME280;4204;43.004;23.052;2022-10-16T12:28:02;94560.19;;;17.49;100.00
8334;BME280;4204;43.004;23.052;2022-10-16T12:30:33;94583.72;;;17.52;100.00
8334;BME280;4204;43.004;23.052;2022-10-16T12:33:04;94578.44;;;17.56;100.00
8334;BME280;4204;43.004;23.052;2022-10-16T12:35:35;94581.13;;;17.56;100.00
8334;BME280;4204;43.004;23.052;2022-10-16T12:38:19;94582.69;;;17.57;100.00
8334;BME280;4204;43.004;23.052;2022-10-16T12:40:56;94573.63;;;17.61;100.00
8334;BME280;4204;43.004;23.052;2022-10-16T12:43:34;94582.94;;;17.64;100.00
8334;BME280;4204;43.004;23.052;2022-10-16T12:46:05;94578.66;;;17.63;100.00
8334;BME280;4204;43.004;23.052;2022-10-16T12:48:33;94574.63;;;17.69;100.00
8334;BME280;4204;43.004;23.052;2022-10-16T12:51:10;94575.84;;;17.71;100.00
8334;BME280;4204;43.004;23.052;2022-10-16T12:53:39;94574.94;;;17.67;100.00
8334;BME280;4204;43.004;23.052;2022-10-16T12:56:15;94582.00;;;17.72;100.00
8334;BME280;4204;43.004;23.052;2022-10-16T12:58:56;94581.56;;;17.70;100.00
8334;BME280;4204;43.004;23.052;2022-10-16T13:01:36;94582.72;;;17.69;100.00
8334;BME280;4204;43.004;23.052;2022-10-16T13:04:30;94585.97;;;17.62;100.00
8334;BME280;4204;43.004;23.052;2022-10-16T13:07:15;94574.31;;;17.58;100.00
8334;BME280;4204;43.004;23.052;2022-10-16T13:10:00;94593.34;;;17.65;100.00
8334;BME280;4204;43.004;23.052;2022-10-16T13:12:44;94598.25;;;17.75;100.00
8334;BME280;4204;43.004;23.052;2022-10-16T13:15:22;94596.03;;;17.65;100.00
8334;BME280;4204;43.004;23.052;2022-10-16T13:18:01;94594.13;;;17.66;100.00
8334;BME280;4204;43.004;23.052;2022-10-16T13:20:35;94606.00;;;17.65;100.00
8334;BME280;4204;43.004;23.052;2022-10-16T13:23:13;94600.16;;;17.63;100.00
8334;BME280;4204;43.004;23.052;2022-10-16T13:25:55;94603.22;;;17.61;100.00
8334;BME280;4204;43.004;23.052;2022-10-16T13:28:29;94605.00;;;17.57;100.00
8334;BME280;4204;43.004;23.052;2022-10-16T13:30:59;94603.91;;;17.58;100.00